Time;durP1;ratioP1;P1;durP2;ratioP2;P2;SDS_P1;SDS_P2;PMS_P1;PMS_P2;Temp;Humidity;BMP_temperature;BMP_pressure;BME280_temperature;BME280_humidity;BME280_pressure;Samples;Min_cycle;Max_cycle;Signal;HPM_P1;HPM_P2
2022/07/26 00:01:21;;;;;;;10.68;7.20;;;;;;;23.47;73.97;100562.69;5050699;28;20179;-68
2022/07/26 00:03:51;;;;;;;16.75;7.15;;;;;;;23.29;74.82;100578.88;5048883;28;20044;-68
2022/07/26 00:06:18;;;;;;;10.55;6.95;;;;;;;23.42;74.72;100583.78;5065038;28;20059;-68
2022/07/26 00:08:44;;;;;;;8.55;6.72;;;;;;;23.60;73.36;100580.97;5060662;28;22242;-68
2022/07/26 00:11:11;;;;;;;14.32;7.90;;;;;;;23.16;75.71;100583.88;5060993;28;20040;-68
2022/07/26 00:13:37;;;;;;;10.98;7.25;;;;;;;23.33;74.99;100579.38;5070659;28;20267;-68
2022/07/26 00:16:05;;;;;;;9.65;7.18;;;;;;;23.51;73.80;100573.91;5067289;28;20066;-68
2022/07/26 00:18:32;;;;;;;11.95;6.78;;;;;;;23.62;73.24;100574.41;5065530;28;20098;-68
2022/07/26 00:21:00;;;;;;;11.10;7.57;;;;;;;23.60;72.64;100581.78;5068306;28;20516;-68
2022/07/26 00:23:26;;;;;;;10.20;7.45;;;;;;;23.43;73.82;100584.63;5059387;28;20102;-68
2022/07/26 00:25:53;;;;;;;10.00;7.72;;;;;;;23.26;74.08;100600.63;5064716;28;20110;-68
2022/07/26 00:28:20;;;;;;;12.63;7.57;;;;;;;22.32;78.29;100597.19;5068156;28;20098;-68
2022/07/26 00:30:46;;;;;;;10.85;7.07;;;;;;;22.41;78.30;100594.56;5067072;28;20052;-68
2022/07/26 00:33:13;;;;;;;11.15;7.47;;;;;;;22.43;77.68;100597.94;5065450;28;20408;-68
2022/07/26 00:35:40;;;;;;;12.15;7.70;;;;;;;22.17;78.53;100603.28;5068514;28;20071;-68
2022/07/26 00:38:07;;;;;;;11.93;7.18;;;;;;;22.30;78.29;100595.69;5071532;27;20093;-68
2022/07/26 00:40:34;;;;;;;10.73;6.95;;;;;;;21.98;78.78;100604.31;5059047;27;20041;-68
2022/07/26 00:43:00;;;;;;;11.10;8.05;;;;;;;21.95;79.05;100601.94;5067304;28;20101;-68
2022/07/26 00:45:27;;;;;;;11.80;8.02;;;;;;;21.36;83.00;100618.56;5067156;28;20492;-68
2022/07/26 00:47:53;;;;;;;12.65;8.60;;;;;;;21.17;84.66;100611.56;5067592;27;20053;-68
2022/07/26 00:50:20;;;;;;;13.13;9.60;;;;;;;21.12;85.88;100618.31;5066486;28;20496;-68
2022/07/26 00:52:48;;;;;;;14.95;10.65;;;;;;;21.25;85.02;100626.78;5066577;28;20720;-68
2022/07/26 00:55:17;;;;;;;12.63;9.07;;;;;;;21.68;82.12;100624.22;5065485;28;20717;-68
2022/07/26 00:57:44;;;;;;;13.88;9.35;;;;;;;21.80;81.41;100630.19;5081976;28;20051;-68
2022/07/26 01:00:13;;;;;;;12.10;8.85;;;;;;;21.73;81.59;100632.59;5085452;28;20450;-68
2022/07/26 01:02:40;;;;;;;14.15;9.27;;;;;;;21.73;82.53;100626.41;5084336;28;20071;-68
2022/07/26 01:05:07;;;;;;;14.50;8.80;;;;;;;22.18;80.19;100618.28;5069490;28;20044;-68
2022/07/26 01:07:34;;;;;;;11.90;8.50;;;;;;;22.38;79.38;100624.28;5065338;28;20048;-68
2022/07/26 01:10:02;;;;;;;12.50;8.82;;;;;;;22.56;78.41;100628.56;5058465;28;20114;-68
2022/07/26 01:12:29;;;;;;;13.52;8.60;;;;;;;22.55;78.06;100634.91;5068055;28;20053;-68
2022/07/26 01:14:55;;;;;;;11.27;8.77;;;;;;;22.60;77.55;100634.44;5058818;27;20117;-68
2022/07/26 01:17:22;;;;;;;12.05;8.18;;;;;;;22.61;77.35;100633.44;5084987;27;20047;-68
2022/07/26 01:19:49;;;;;;;12.07;7.80;;;;;;;22.72;76.70;100642.06;5086831;27;20130;-68
2022/07/26 01:22:16;;;;;;;13.27;7.38;;;;;;;22.85;76.09;100638.91;5064714;28;20037;-68
2022/07/26 01:24:42;;;;;;;11.57;7.95;;;;;;;22.82;76.15;100633.91;5062717;28;20118;-68
2022/07/26 01:27:09;;;;;;;15.30;8.18;;;;;;;22.92;75.56;100629.25;5065935;28;20404;-68
2022/07/26 01:29:36;;;;;;;13.05;7.85;;;;;;;22.92;75.10;100637.28;5053493;28;20106;-68
2022/07/26 01:32:03;;;;;;;10.77;6.78;;;;;;;22.77;73.05;100628.19;5045078;28;20483;-68
2022/07/26 01:34:30;;;;;;;10.43;6.20;;;;;;;23.16;71.36;100628.50;5046230;28;20504;-68
2022/07/26 01:36:56;;;;;;;9.98;5.85;;;;;;;23.11;71.16;100636.19;5045402;28;20106;-68
2022/07/26 01:39:24;;;;;;;11.45;5.60;;;;;;;22.83;72.15;100630.25;5054053;28;20045;-68
2022/07/26 01:41:50;;;;;;;8.50;5.40;;;;;;;23.00;71.01;100631.97;5062124;28;20092;-68
2022/07/26 01:44:16;;;;;;;9.48;5.97;;;;;;;22.77;72.02;100641.56;5065112;28;20048;-68
2022/07/26 01:46:43;;;;;;;9.70;5.63;;;;;;;22.40;73.71;100646.31;5064110;28;20098;-68
2022/07/26 01:49:09;;;;;;;10.80;5.80;;;;;;;22.59;72.83;100643.44;5066117;28;20060;-68
2022/07/26 01:51:35;;;;;;;9.80;5.72;;;;;;;22.21;74.65;100639.34;5064867;28;20044;-68
2022/07/26 01:54:02;;;;;;;11.48;6.70;;;;;;;22.18;75.59;100637.84;5063878;28;20047;-68
2022/07/26 01:56:30;;;;;;;10.15;6.43;;;;;;;21.64;78.33;100640.69;5061874;27;20047;-68
2022/07/26 01:58:56;;;;;;;13.60;7.43;;;;;;;21.50;79.62;100647.41;5064110;28;20106;-68
2022/07/26 02:01:23;;;;;;;11.15;6.78;;;;;;;21.50;79.44;100650.06;5068722;27;20048;-68
2022/07/26 02:03:49;;;;;;;11.88;6.38;;;;;;;21.30;79.60;100646.69;5069102;28;20097;-68
2022/07/26 02:06:15;;;;;;;13.40;6.72;;;;;;;21.65;78.84;100637.88;5063675;28;20041;-68
2022/07/26 02:08:42;;;;;;;11.32;7.38;;;;;;;21.64;78.22;100638.03;5064577;27;20072;-68
2022/07/26 02:11:08;;;;;;;11.30;7.68;;;;;;;21.56;78.16;100637.94;5064917;28;20134;-68
2022/07/26 02:13:37;;;;;;;9.77;7.78;;;;;;;21.65;78.02;100632.53;5066056;27;20044;-68
2022/07/26 02:16:06;;;;;;;13.43;7.72;;;;;;;21.33;78.84;100638.38;5056175;27;20064;-68
2022/07/26 02:18:32;;;;;;;13.60;8.05;;;;;;;21.50;77.89;100630.56;5072431;28;20040;-68
2022/07/26 02:21:00;;;;;;;14.13;8.38;;;;;;;21.58;77.79;100635.97;5075050;27;20044;-68
2022/07/26 02:23:27;;;;;;;14.20;7.50;;;;;;;21.56;77.54;100637.94;5066033;27;20070;-68
2022/07/26 02:25:54;;;;;;;12.45;7.63;;;;;;;21.34;77.04;100639.22;5075511;27;20116;-68
2022/07/26 02:28:21;;;;;;;10.30;6.53;;;;;;;20.84;78.47;100639.59;5071172;27;20105;-68
2022/07/26 02:30:50;;;;;;;12.90;8.95;;;;;;;20.69;81.29;100638.44;5042721;28;20111;-68
2022/07/26 02:33:18;;;;;;;14.85;9.23;;;;;;;20.33;82.50;100633.91;5056398;28;20459;-68
2022/07/26 02:35:45;;;;;;;15.85;9.82;;;;;;;20.11;84.57;100637.69;5065698;28;20045;-68
2022/07/26 02:38:13;;;;;;;12.57;9.40;;;;;;;20.69;82.09;100643.75;5064471;28;20044;-68
2022/07/26 02:40:41;;;;;;;11.30;8.63;;;;;;;21.01;79.47;100643.31;5065736;27;20086;-68
2022/07/26 02:43:09;;;;;;;14.23;9.50;;;;;;;21.24;78.02;100641.13;5054264;28;20212;-68
2022/07/26 02:45:35;;;;;;;19.98;9.32;;;;;;;21.08;78.06;100644.41;5065964;27;20067;-68
2022/07/26 02:48:04;;;;;;;14.95;9.02;;;;;;;20.80;79.90;100640.88;5065402;28;20114;-68
2022/07/26 02:50:30;;;;;;;19.05;8.48;;;;;;;21.02;77.84;100638.84;5067314;28;20036;-68
2022/07/26 02:52:57;;;;;;;13.75;8.65;;;;;;;20.70;79.11;100641.91;5068868;27;20531;-68
2022/07/26 02:55:25;;;;;;;11.90;8.57;;;;;;;20.78;79.00;100642.03;5085256;27;20491;-68
2022/07/26 02:57:51;;;;;;;16.15;9.25;;;;;;;20.76;78.99;100642.19;5077987;27;20563;-68
2022/07/26 03:00:20;;;;;;;13.02;8.05;;;;;;;20.80;78.00;100632.88;5066468;28;20047;-68
2022/07/26 03:02:47;;;;;;;12.15;8.07;;;;;;;20.92;77.03;100636.19;5066405;27;20052;-68
2022/07/26 03:05:16;;;;;;;14.05;7.80;;;;;;;21.11;75.95;100636.13;5065470;28;20060;-68
2022/07/26 03:07:42;;;;;;;12.55;7.35;;;;;;;21.34;74.64;100637.41;5062148;28;20451;-68
2022/07/26 03:10:09;;;;;;;15.13;6.75;;;;;;;21.20;74.65;100642.41;5063057;28;20561;-68
2022/07/26 03:12:35;;;;;;;9.77;6.43;;;;;;;21.22;74.05;100640.41;5070334;27;20056;-68
2022/07/26 03:15:02;;;;;;;11.10;6.18;;;;;;;21.25;73.73;100637.44;5073530;27;20087;-68
2022/07/26 03:17:28;;;;;;;11.25;5.30;;;;;;;21.25;72.68;100640.09;5078004;27;20048;-68
2022/07/26 03:19:54;;;;;;;10.98;4.82;;;;;;;21.36;71.68;100643.41;5064948;28;20110;-68
2022/07/26 03:22:22;;;;;;;8.65;5.18;;;;;;;21.41;70.75;100644.78;5063152;27;20044;-68
2022/07/26 03:24:48;;;;;;;12.30;4.63;;;;;;;21.51;69.76;100634.88;5063430;28;20049;-68
2022/07/26 03:27:15;;;;;;;12.05;4.72;;;;;;;21.37;69.80;100646.91;5065268;28;20044;-68
2022/07/26 03:29:41;;;;;;;10.40;4.85;;;;;;;21.36;69.75;100645.22;5057788;28;20457;-68
2022/07/26 03:32:08;;;;;;;13.50;4.53;;;;;;;21.17;70.47;100643.56;5063780;28;20067;-68
2022/07/26 03:34:34;;;;;;;8.00;4.18;;;;;;;21.14;70.12;100641.16;5062968;28;20053;-68
2022/07/26 03:37:01;;;;;;;9.65;4.55;;;;;;;21.14;69.51;100646.50;5053526;28;20048;-68
2022/07/26 03:39:28;;;;;;;15.45;4.40;;;;;;;21.18;69.33;100644.38;5050661;28;20056;-68
2022/07/26 03:41:55;;;;;;;6.88;3.50;;;;;;;21.13;69.04;100642.16;5054728;28;20045;-68
2022/07/26 03:44:21;;;;;;;7.38;3.72;;;;;;;21.43;67.74;100637.50;5080418;27;20468;-68
2022/07/26 03:46:47;;;;;;;10.10;3.55;;;;;;;21.26;67.42;100642.63;5088000;27;20043;-68
2022/07/26 03:49:14;;;;;;;9.88;3.20;;;;;;;21.39;66.61;100638.78;5086505;27;20044;-68
2022/07/26 03:51:40;;;;;;;9.52;3.17;;;;;;;21.50;66.14;100633.22;5066985;27;20568;-68
2022/07/26 03:54:06;;;;;;;10.18;3.10;;;;;;;21.44;66.37;100634.66;5080095;27;20048;-68
2022/07/26 03:56:33;;;;;;;5.45;3.00;;;;;;;21.48;66.33;100640.53;5075759;27;20045;-68
2022/07/26 03:59:01;;;;;;;7.07;3.10;;;;;;;21.60;65.52;100631.31;5053346;28;20394;-68
2022/07/26 04:01:28;;;;;;;7.47;4.05;;;;;;;21.44;66.38;100639.16;5066064;28;20040;-68
2022/07/26 04:03:54;;;;;;;10.82;3.33;;;;;;;21.46;65.94;100646.03;5087558;27;20093;-68
2022/07/26 04:06:21;;;;;;;8.02;3.45;;;;;;;21.45;66.42;100638.16;5070090;27;20044;-68
2022/07/26 04:08:47;;;;;;;6.70;2.97;;;;;;;21.52;65.18;100633.91;5081855;27;21071;-68
2022/07/26 04:11:14;;;;;;;7.78;3.20;;;;;;;21.46;66.06;100642.53;5068583;28;20037;-68
2022/07/26 04:13:42;;;;;;;10.68;3.70;;;;;;;21.45;66.22;100639.00;5065694;28;20044;-68
2022/07/26 04:16:08;;;;;;;9.05;3.38;;;;;;;21.58;66.65;100635.97;5068028;28;20118;-68
2022/07/26 04:18:35;;;;;;;13.73;3.67;;;;;;;21.57;67.18;100642.28;5066318;28;20122;-68
2022/07/26 04:21:01;;;;;;;10.38;3.28;;;;;;;21.73;65.93;100648.59;5085545;27;20093;-68
2022/07/26 04:23:27;;;;;;;8.90;3.72;;;;;;;21.84;65.02;100648.38;5086103;27;20044;-68
2022/07/26 04:25:54;;;;;;;8.85;3.90;;;;;;;21.77;64.88;100649.13;5087655;27;20048;-68
2022/07/26 04:28:20;;;;;;;10.15;3.33;;;;;;;21.82;64.75;100662.88;5067187;28;20446;-68
2022/07/26 04:30:48;;;;;;;8.52;3.53;;;;;;;21.78;65.58;100650.81;5055225;28;20053;-68
2022/07/26 04:33:14;;;;;;;18.58;3.47;;;;;;;21.50;66.75;100657.22;5057055;27;20056;-68
2022/07/26 04:35:40;;;;;;;11.88;3.50;;;;;;;20.70;70.63;100657.91;5064276;28;20053;-69
2022/07/26 04:38:07;;;;;;;10.88;3.97;;;;;;;20.42;71.69;100658.84;5060807;28;20062;-68
2022/07/26 04:40:33;;;;;;;7.93;4.32;;;;;;;20.36;72.20;100657.59;5061369;27;20090;-68
2022/07/26 04:43:14;;;;;;;8.23;3.95;;;;;;;20.62;71.24;100660.47;5043929;28;20049;-68
2022/07/26 04:45:41;;;;;;;14.65;4.00;;;;;;;20.20;72.35;100666.16;5046200;28;20049;-68
2022/07/26 04:48:08;;;;;;;8.88;4.25;;;;;;;20.36;72.30;100669.06;5046689;28;20118;-68
2022/07/26 04:50:35;;;;;;;9.13;4.82;;;;;;;20.62;71.31;100663.13;5045258;28;20045;-68
2022/07/26 04:53:01;;;;;;;13.30;4.60;;;;;;;20.59;71.58;100674.06;5045026;28;20071;-68
2022/07/26 04:55:28;;;;;;;7.38;3.90;;;;;;;20.73;70.87;100671.75;5048647;28;20052;-68
2022/07/26 04:57:55;;;;;;;12.48;4.82;;;;;;;20.68;70.98;100678.53;5045491;28;20049;-68
2022/07/26 05:00:23;;;;;;;17.02;5.03;;;;;;;20.42;71.41;100665.00;5046058;28;20071;-68
2022/07/26 05:02:51;;;;;;;7.90;4.30;;;;;;;20.50;71.40;100677.59;5047380;28;20388;-68
2022/07/26 05:05:19;;;;;;;14.68;4.82;;;;;;;19.93;73.32;100682.00;5046449;28;20048;-68
2022/07/26 05:07:47;;;;;;;12.30;4.25;;;;;;;20.35;73.04;100666.56;5045756;28;20110;-68
2022/07/26 05:10:15;;;;;;;22.08;5.03;;;;;;;20.08;73.48;100663.75;5046918;28;20072;-68
2022/07/26 05:12:41;;;;;;;10.75;4.18;;;;;;;20.38;73.02;100663.63;5045931;28;20484;-68
2022/07/26 05:15:09;;;;;;;15.82;6.18;;;;;;;20.56;72.22;100663.69;5045797;28;20497;-68
2022/07/26 05:17:38;;;;;;;11.27;4.10;;;;;;;20.57;72.57;100668.06;5047542;28;20099;-68
2022/07/26 05:20:05;;;;;;;12.10;4.95;;;;;;;21.01;70.83;100667.31;5044761;28;20072;-68
2022/07/26 05:22:33;;;;;;;7.05;3.92;;;;;;;21.23;68.86;100674.94;5045313;28;20049;-68
2022/07/26 05:24:59;;;;;;;11.93;4.10;;;;;;;21.36;68.73;100674.56;5046300;28;20459;-68
2022/07/26 05:27:26;;;;;;;7.07;3.90;;;;;;;21.20;69.08;100667.25;5045598;28;20185;-68
2022/07/26 05:29:53;;;;;;;7.97;3.58;;;;;;;21.65;67.35;100674.41;5031843;28;20424;-69
2022/07/26 05:32:20;;;;;;;8.82;3.70;;;;;;;21.43;67.39;100670.34;5045975;28;20075;-69
2022/07/26 05:34:46;;;;;;;13.38;4.30;;;;;;;21.58;67.28;100671.47;5043760;28;20129;-69
2022/07/26 05:37:12;;;;;;;11.38;3.75;;;;;;;21.64;66.02;100675.38;5045236;28;20061;-69
2022/07/26 05:39:40;;;;;;;6.72;3.35;;;;;;;22.03;65.56;100663.41;5046233;28;20536;-70
2022/07/26 05:42:07;;;;;;;8.57;3.20;;;;;;;22.37;64.35;100660.00;5044525;28;20135;-70
2022/07/26 05:44:33;;;;;;;12.80;3.38;;;;;;;22.83;62.86;100664.16;5045801;28;20408;-70
2022/07/26 05:46:59;;;;;;;11.30;2.95;;;;;;;23.16;61.13;100664.13;5045034;28;20045;-70
2022/07/26 05:49:26;;;;;;;7.53;2.72;;;;;;;23.58;59.58;100661.41;5044809;28;20041;-70
2022/07/26 05:51:52;;;;;;;12.70;3.08;;;;;;;23.33;60.29;100664.16;5045420;28;20398;-70
2022/07/26 05:54:20;;;;;;;9.63;2.83;;;;;;;23.44;58.99;100671.91;5046612;28;20040;-70
2022/07/26 05:56:48;;;;;;;11.88;2.53;;;;;;;23.59;59.16;100662.25;5044408;28;20081;-71
2022/07/26 05:59:14;;;;;;;6.65;2.30;;;;;;;23.86;57.27;100670.00;5055368;28;20117;-71
2022/07/26 06:01:40;;;;;;;7.38;2.25;;;;;;;24.61;54.94;100663.41;5049066;28;20052;-71
2022/07/26 06:04:07;;;;;;;13.90;2.50;;;;;;;24.75;54.38;100669.09;5042965;28;20118;-72
2022/07/26 06:06:34;;;;;;;11.07;2.58;;;;;;;24.91;53.33;100677.09;5044128;28;20037;-72
2022/07/26 06:09:00;;;;;;;8.40;2.15;;;;;;;25.25;52.62;100666.88;5045393;28;20045;-71
2022/07/26 06:11:32;;;;;;;11.73;2.17;;;;;;;25.12;52.61;100674.69;5047788;28;20048;-71
2022/07/26 06:13:59;;;;;;;6.38;1.55;;;;;;;25.54;53.36;100677.81;5034580;28;20049;-71
2022/07/26 06:16:26;;;;;;;7.32;1.77;;;;;;;25.50;50.79;100686.38;5045018;28;20049;-71
2022/07/26 06:18:52;;;;;;;7.60;1.83;;;;;;;25.42;52.07;100687.28;5042897;28;20052;-72
2022/07/26 06:21:19;;;;;;;13.90;1.85;;;;;;;25.77;50.62;100690.44;5043998;28;20049;-71
2022/07/26 06:23:45;;;;;;;7.13;2.17;;;;;;;25.31;51.84;100685.00;5044811;28;20049;-71
2022/07/26 06:26:11;;;;;;;6.80;1.75;;;;;;;25.23;51.33;100689.56;5044748;28;20041;-71
2022/07/26 06:28:38;;;;;;;6.43;1.85;;;;;;;25.75;50.39;100684.41;5045699;28;20053;-71
2022/07/26 06:31:06;;;;;;;5.82;1.58;;;;;;;26.02;50.55;100691.91;5045122;28;20095;-72
2022/07/26 06:33:32;;;;;;;10.32;1.73;;;;;;;25.63;50.07;100692.03;5042302;28;20561;-72
2022/07/26 06:35:59;;;;;;;5.15;1.42;;;;;;;25.75;50.35;100687.09;5044965;28;20049;-72
2022/07/26 06:38:25;;;;;;;4.80;1.60;;;;;;;25.23;51.10;100684.19;5045478;28;20400;-72
2022/07/26 06:40:52;;;;;;;6.10;1.80;;;;;;;24.74;51.66;100692.38;5042869;28;20091;-71
2022/07/26 06:43:18;;;;;;;6.72;1.80;;;;;;;25.30;50.87;100687.84;5042992;28;20102;-71
2022/07/26 06:45:44;;;;;;;5.97;1.42;;;;;;;25.56;49.86;100696.44;5045734;28;20447;-71
2022/07/26 06:48:13;;;;;;;6.53;1.45;;;;;;;25.61;49.99;100694.06;5043402;28;20041;-71
2022/07/26 06:50:39;;;;;;;5.65;1.50;;;;;;;25.91;49.06;100693.19;5044527;28;20049;-71
2022/07/26 06:53:05;;;;;;;4.20;1.45;;;;;;;25.78;48.76;100701.00;5044277;28;20064;-72
2022/07/26 06:55:32;;;;;;;5.40;1.38;;;;;;;25.79;48.71;100691.94;5043901;28;20095;-71
2022/07/26 06:57:58;;;;;;;10.57;1.60;;;;;;;25.82;49.37;100691.59;5044879;28;20547;-71
2022/07/26 07:00:24;;;;;;;7.80;1.80;;;;;;;25.64;49.09;100694.56;5045188;28;20102;-71
2022/07/26 07:02:51;;;;;;;3.70;1.30;;;;;;;26.27;48.64;100693.44;5043485;28;20079;-71
2022/07/26 07:05:18;;;;;;;5.93;1.55;;;;;;;26.95;48.05;100698.63;5044898;28;20041;-71
2022/07/26 07:07:45;;;;;;;7.63;1.77;;;;;;;27.17;46.37;100696.84;5051522;28;20056;-71
2022/07/26 07:10:11;;;;;;;6.20;1.88;;;;;;;27.09;45.57;100711.25;5067019;27;20045;-71
2022/07/26 07:12:38;;;;;;;5.50;1.52;;;;;;;26.98;46.12;100708.19;5064073;28;20044;-71
2022/07/26 07:15:06;;;;;;;5.07;1.63;;;;;;;26.79;47.13;100712.22;5066111;27;20048;-71
2022/07/26 07:17:33;;;;;;;4.72;1.45;;;;;;;27.09;46.11;100703.16;5066668;28;20133;-71
2022/07/26 07:20:00;;;;;;;4.57;1.30;;;;;;;27.24;45.18;100705.00;5067601;28;20044;-71
2022/07/26 07:22:27;;;;;;;9.25;1.83;;;;;;;27.22;46.34;100707.91;5072532;28;20422;-71
2022/07/26 07:24:53;;;;;;;5.13;1.67;;;;;;;27.40;45.06;100711.03;5062133;27;20099;-71
2022/07/26 07:27:20;;;;;;;7.15;1.63;;;;;;;27.39;45.62;100720.13;5068521;28;20045;-71
2022/07/26 07:29:46;;;;;;;7.13;1.50;;;;;;;27.41;45.96;100715.38;5069137;28;20044;-71
2022/07/26 07:32:12;;;;;;;9.02;1.48;;;;;;;27.86;44.01;100722.34;5076448;28;20101;-71
2022/07/26 07:34:39;;;;;;;10.00;2.30;;;;;;;26.55;46.03;100715.19;5075865;28;20053;-71
2022/07/26 07:37:05;;;;;;;6.55;1.88;;;;;;;26.72;47.32;100715.88;5068495;28;20076;-71
2022/07/26 07:39:33;;;;;;;9.52;1.92;;;;;;;26.87;46.17;100719.41;5068544;27;20450;-71
2022/07/26 07:41:59;;;;;;;7.05;1.92;;;;;;;26.87;47.02;100724.78;5068438;28;20048;-70
2022/07/26 07:44:26;;;;;;;5.90;1.67;;;;;;;26.25;47.47;100729.56;5068376;28;20492;-71
2022/07/26 07:46:52;;;;;;;6.75;1.70;;;;;;;25.97;47.73;100730.09;5083128;27;20556;-71
2022/07/26 07:49:18;;;;;;;4.20;1.77;;;;;;;26.29;48.02;100720.13;5088340;27;20044;-70
2022/07/26 07:51:45;;;;;;;7.30;1.88;;;;;;;26.23;48.05;100726.22;5087382;27;20044;-70
2022/07/26 07:54:11;;;;;;;9.60;2.00;;;;;;;25.86;48.73;100725.13;5087518;27;20048;-70
2022/07/26 07:56:39;;;;;;;7.60;2.08;;;;;;;25.79;49.35;100732.25;5088853;27;20105;-71
2022/07/26 07:59:05;;;;;;;8.27;2.00;;;;;;;25.71;48.73;100723.38;5084249;27;20417;-70
2022/07/26 08:01:31;;;;;;;6.30;1.80;;;;;;;26.15;47.59;100719.88;5077598;27;20105;-70
2022/07/26 08:03:58;;;;;;;13.18;1.90;;;;;;;25.91;48.58;100722.72;5072290;28;20055;-70
2022/07/26 08:06:24;;;;;;;4.35;1.75;;;;;;;25.33;48.90;100733.94;5086636;28;20040;-72
2022/07/26 08:08:50;;;;;;;5.93;2.22;;;;;;;25.48;49.61;100726.84;5084715;28;20102;-70
2022/07/26 08:11:17;;;;;;;5.60;1.83;;;;;;;25.73;50.03;100734.78;5046006;28;20513;-70
2022/07/26 08:13:44;;;;;;;7.63;1.90;;;;;;;26.00;48.06;100723.53;5057099;28;20053;-70
2022/07/26 08:16:11;;;;;;;6.65;2.13;;;;;;;26.12;48.66;100725.63;5068266;28;20045;-70
2022/07/26 08:18:37;;;;;;;7.25;2.70;;;;;;;26.26;48.00;100723.19;5066101;28;20102;-70
2022/07/26 08:21:04;;;;;;;7.07;2.08;;;;;;;26.43;47.38;100722.00;5065370;28;20110;-70
2022/07/26 08:23:30;;;;;;;5.45;2.67;;;;;;;26.72;47.85;100716.69;5067073;28;20053;-70
2022/07/26 08:25:57;;;;;;;8.30;2.20;;;;;;;26.64;47.20;100714.09;5067999;28;20044;-70
2022/07/26 08:28:24;;;;;;;9.05;3.03;;;;;;;27.13;45.86;100718.94;5064411;28;20048;-70
2022/07/26 08:30:52;;;;;;;9.65;3.17;;;;;;;26.94;45.83;100717.66;5067139;28;20408;-70
2022/07/26 08:33:18;;;;;;;7.03;3.03;;;;;;;26.93;44.02;100716.84;5066014;28;20078;-70
2022/07/26 08:35:44;;;;;;;9.55;2.60;;;;;;;26.99;45.82;100717.94;5066899;28;20044;-70
2022/07/26 08:38:11;;;;;;;5.00;2.25;;;;;;;26.97;44.95;100719.97;5067591;28;20127;-70
2022/07/26 08:40:37;;;;;;;5.35;2.38;;;;;;;26.48;45.00;100731.22;5069566;27;20044;-71
2022/07/26 08:43:04;;;;;;;4.60;3.10;;;;;;;26.08;46.23;100728.84;5065895;28;20048;-70
2022/07/26 08:45:31;;;;;;;7.50;2.55;;;;;;;25.40;47.95;100737.59;5067755;28;20040;-71
2022/07/26 08:48:00;;;;;;;7.32;3.10;;;;;;;25.09;49.59;100734.88;5066551;28;20858;-71
2022/07/26 08:50:27;;;;;;;10.02;3.22;;;;;;;24.88;50.03;100739.97;5066768;28;20045;-71
2022/07/26 08:52:59;;;;;;;7.80;3.22;;;;;;;24.56;51.56;100742.69;5067340;28;20098;-71
2022/07/26 08:55:25;;;;;;;8.65;3.53;;;;;;;24.52;51.15;100738.66;5074154;27;20048;-70
2022/07/26 08:57:52;;;;;;;4.80;2.88;;;;;;;24.47;51.75;100752.56;5077433;27;20541;-70
2022/07/26 09:00:20;;;;;;;5.25;2.67;;;;;;;24.57;51.32;100747.88;5074654;27;20411;-70
2022/07/26 09:02:47;;;;;;;8.45;2.65;;;;;;;24.87;50.55;100749.00;5074572;27;20048;-70
2022/07/26 09:05:18;;;;;;;7.65;2.90;;;;;;;25.05;50.98;100757.72;5075561;27;20513;-70
2022/07/26 09:07:45;;;;;;;7.47;2.50;;;;;;;25.07;50.72;100754.84;5086419;28;20048;-70
2022/07/26 09:10:13;;;;;;;6.85;2.50;;;;;;;25.46;50.43;100755.69;5078996;28;20048;-70
2022/07/26 09:12:41;;;;;;;6.57;2.72;;;;;;;25.61;49.31;100758.50;5066029;28;20067;-70
2022/07/26 09:15:17;;;;;;;6.68;2.70;;;;;;;26.02;49.17;100746.50;5071471;28;20070;-70
2022/07/26 09:17:45;;;;;;;6.90;2.72;;;;;;;25.74;47.80;100755.25;5047631;28;20512;-70
2022/07/26 09:20:15;;;;;;;6.15;2.92;;;;;;;25.80;47.78;100755.38;5054167;28;20044;-70
2022/07/26 09:22:59;;;;;;;4.63;2.67;;;;;;;26.76;48.94;100749.41;5065111;28;20048;-70
2022/07/26 09:25:26;;;;;;;8.40;3.03;;;;;;;27.31;46.56;100752.53;5066624;28;20151;-69
2022/07/26 09:27:52;;;;;;;5.03;2.30;;;;;;;27.84;43.51;100745.13;5065672;28;20071;-69
2022/07/26 09:30:19;;;;;;;6.38;2.33;;;;;;;29.02;41.43;100751.56;5069600;27;20069;-69
2022/07/26 09:32:57;;;;;;;8.23;2.72;;;;;;;29.44;41.66;100761.38;5077781;27;20036;-69
2022/07/26 09:35:23;;;;;;;6.80;2.15;;;;;;;29.60;40.38;100754.81;5073796;27;20044;-69
2022/07/26 09:37:50;;;;;;;5.43;2.45;;;;;;;29.62;39.21;100753.56;5059162;28;20474;-69
2022/07/26 09:40:18;;;;;;;4.85;2.17;;;;;;;29.80;39.90;100751.13;5050633;28;20114;-69
2022/07/26 09:42:54;;;;;;;3.40;1.90;;;;;;;30.37;39.30;100763.31;5052968;28;20456;-70
2022/07/26 09:45:21;;;;;;;2.45;1.80;;;;;;;30.72;36.75;100759.38;5061532;28;20114;-71
2022/07/26 09:47:47;;;;;;;5.22;1.90;;;;;;;31.07;35.48;100756.44;5064798;28;20044;-71
2022/07/26 09:50:15;;;;;;;6.28;1.83;;;;;;;30.56;36.00;100765.19;5065113;28;20098;-71
2022/07/26 09:53:09;;;;;;;9.88;2.10;;;;;;;29.95;36.79;100759.94;5065291;28;20052;-71
2022/07/26 09:55:55;;;;;;;6.72;2.42;;;;;;;29.70;36.40;100763.34;5055604;28;20090;-71
2022/07/26 09:58:22;;;;;;;8.25;2.30;;;;;;;29.28;37.99;100759.00;5058538;27;20041;-71
2022/07/26 10:00:50;;;;;;;7.28;2.60;;;;;;;28.69;39.64;100770.25;5065203;28;20102;-72
2022/07/26 10:03:16;;;;;;;3.58;2.17;;;;;;;28.42;41.82;100768.31;5066113;28;20055;-71
2022/07/26 10:05:43;;;;;;;6.50;2.28;;;;;;;28.60;39.55;100760.59;5064798;28;20056;-71
2022/07/26 10:08:10;;;;;;;5.78;2.10;;;;;;;28.99;38.16;100755.50;5063818;28;20044;-71
2022/07/26 10:10:43;;;;;;;4.10;2.15;;;;;;;28.98;37.82;100750.28;5066583;27;20097;-71
2022/07/26 10:13:10;;;;;;;4.82;2.30;;;;;;;29.54;39.96;100751.03;5064709;28;20121;-71
2022/07/26 10:15:38;;;;;;;4.80;2.28;;;;;;;29.57;38.00;100758.72;5075688;27;20044;-71
2022/07/26 10:18:07;;;;;;;5.20;2.80;;;;;;;28.93;38.22;100750.91;5057113;28;20093;-70
2022/07/26 10:20:48;;;;;;;6.97;2.33;;;;;;;29.39;38.86;100747.63;5065376;28;20051;-71
2022/07/26 10:23:37;;;;;;;3.25;2.33;;;;;;;29.34;37.31;100753.63;5056900;28;20060;-71
2022/07/26 10:26:07;;;;;;;6.72;2.22;;;;;;;30.15;37.05;100759.13;5053513;28;20553;-71
2022/07/26 10:28:35;;;;;;;5.63;2.70;;;;;;;29.60;36.13;100755.63;5048299;28;20041;-71
2022/07/26 10:31:30;;;;;;;5.50;2.40;;;;;;;29.88;36.29;100767.19;5064046;28;20040;-71
2022/07/26 10:33:59;;;;;;;7.25;2.30;;;;;;;29.08;36.20;100763.47;5052504;28;20135;-71
2022/07/26 10:36:31;;;;;;;9.80;2.42;;;;;;;28.41;38.32;100781.00;5044359;28;20289;-71
2022/07/26 10:39:06;;;;;;;5.47;2.50;;;;;;;27.97;38.39;100762.25;5045897;28;20052;-71
2022/07/26 10:41:43;;;;;;;3.65;2.42;;;;;;;27.66;39.07;100787.81;5053581;28;20056;-71
2022/07/26 10:44:17;;;;;;;5.70;2.50;;;;;;;27.44;40.56;100778.81;5060812;28;20117;-71
2022/07/26 10:47:04;;;;;;;3.75;2.40;;;;;;;26.72;40.98;100797.38;5054693;28;20497;-71
2022/07/26 10:49:33;;;;;;;13.05;3.58;;;;;;;25.70;49.18;100819.22;5065385;28;20040;-70
2022/07/26 10:52:08;;;;;;;14.43;3.67;;;;;;;24.86;55.81;100829.66;5068957;28;20448;-67
2022/07/26 10:55:13;;;;;;;6.72;3.22;;;;;;;23.89;59.11;100843.72;5076320;28;20052;-69
2022/07/26 10:57:43;;;;;;;5.07;3.25;;;;;;;23.33;61.05;100848.78;5083385;27;20059;-70
2022/07/26 11:00:26;;;;;;;5.90;3.10;;;;;;;22.77;64.11;100876.78;5070595;27;20389;-70
2022/07/26 11:02:55;;;;;;;5.28;2.50;;;;;;;21.73;69.39;100863.94;5069154;27;20048;-70
2022/07/26 11:05:27;;;;;;;4.65;2.33;;;;;;;21.48;71.70;100878.81;5063544;28;20044;-70
2022/07/26 11:07:57;;;;;;;4.88;2.25;;;;;;;21.52;71.70;100876.69;5074898;28;20147;-69
2022/07/26 11:10:28;;;;;;;4.45;2.10;;;;;;;21.66;71.83;100885.06;5068090;28;20044;-68
2022/07/26 11:13:13;;;;;;;3.67;1.70;;;;;;;21.80;68.87;100886.41;5063564;28;20058;-69
2022/07/26 11:15:42;;;;;;;5.43;1.83;;;;;;;21.73;69.76;100896.81;5063786;28;20056;-69
2022/07/26 11:18:10;;;;;;;4.78;1.55;;;;;;;21.54;69.71;100885.41;5063542;28;20094;-69
2022/07/26 11:20:37;;;;;;;3.30;1.55;;;;;;;21.64;69.70;100891.53;5064168;28;20071;-69
2022/07/26 11:23:04;;;;;;;2.83;1.58;;;;;;;21.59;69.34;100896.47;5065736;28;20491;-70
2022/07/26 11:25:30;;;;;;;5.00;1.60;;;;;;;21.89;70.44;100906.03;5063131;28;20098;-69